RJFR/KKJ METAR and TAF weather

Enter ICAO airport designator
Station Type Date Time Source
RJFR METAR 2019/02/16 03:00 UTC NOAA

RJFR 160300Z 29015KT 9999 FEW025 BKN035 BKN045 08/M00 Q1018


Station Type Date Time Source
RJFR Decoded METAR 2019/02/16 03:00 UTC NOAA

Kitakyushu Airport, Japan (RJFR) 33-50N 130-57E 6M
Feb 15, 2019 - 10:00 PM EST / 2019.02.16 0300 UTC
Wind: from the WNW (290 degrees) at 17 MPH (15 KT):0
Visibility: greater than 7 mile(s):0
Sky conditions: mostly cloudy
Temperature: 46 F (8 C)
Dew Point: 32 F (0 C)
Relative Humidity: 56%
Pressure (altimeter): 30.06 in. Hg (1018 hPa)
ob: RJFR 160300Z 29015KT 9999 FEW025 BKN035 BKN045 08/M00 Q1018
cycle: 3

Station Type Date Time Source
RJFR TAF 2019/02/15 18:00 UTC NOAA

TAF RJFR 151708Z 1518/1700 30013KT 9999 FEW020 BKN040


Example: see airport list